createdAt,value
2022-10-23T00:01:12.793Z,3.80
2022-10-23T00:03:38.898Z,3.30
2022-10-23T00:06:06.122Z,3.80
2022-10-23T00:08:32.287Z,3.40
2022-10-23T00:10:58.436Z,3.87
2022-10-23T00:13:24.669Z,3.40
2022-10-23T00:18:21.830Z,3.33
2022-10-23T00:20:47.944Z,3.63
2022-10-23T00:23:16.436Z,3.60
2022-10-23T00:25:42.599Z,3.80
2022-10-23T00:28:08.757Z,3.70
2022-10-23T00:30:35.551Z,2.90
2022-10-23T00:33:01.685Z,3.37
2022-10-23T00:35:27.894Z,3.37
2022-10-23T00:37:54.039Z,3.50
2022-10-23T00:40:20.947Z,4.10
2022-10-23T00:42:47.134Z,4.37
2022-10-23T00:45:26.202Z,3.73
2022-10-23T00:47:52.893Z,3.30
2022-10-23T00:50:21.645Z,3.27
2022-10-23T00:52:49.853Z,3.30
2022-10-23T00:55:17.721Z,3.77
2022-10-23T00:57:45.587Z,3.20
2022-10-23T01:00:14.952Z,3.30
2022-10-23T01:02:41.436Z,3.57
2022-10-23T01:05:08.380Z,3.33
2022-10-23T01:07:40.130Z,3.27
2022-10-23T01:10:14.777Z,3.13
2022-10-23T01:12:46.563Z,3.30
2022-10-23T01:15:16.573Z,3.93
2022-10-23T01:17:45.123Z,3.23
2022-10-23T01:20:23.561Z,3.47
2022-10-23T01:23:02.549Z,3.27
2022-10-23T01:25:37.026Z,3.10
2022-10-23T01:28:06.609Z,3.67
2022-10-23T01:30:33.307Z,3.30
2022-10-23T01:33:02.071Z,3.93
2022-10-23T01:35:31.526Z,3.40
2022-10-23T01:38:03.517Z,4.00
2022-10-23T01:40:32.747Z,3.53
2022-10-23T01:43:03.761Z,3.20
2022-10-23T01:45:34.098Z,3.17
2022-10-23T01:48:00.826Z,3.90
2022-10-23T01:50:27.677Z,4.10
2022-10-23T01:52:53.852Z,4.03
2022-10-23T01:55:20.599Z,3.67
2022-10-23T01:57:47.129Z,3.40
2022-10-23T02:00:15.533Z,3.43
2022-10-23T02:02:43.529Z,3.13
2022-10-23T02:05:13.705Z,3.87
2022-10-23T02:07:40.295Z,3.17
2022-10-23T02:10:08.772Z,3.53
2022-10-23T02:12:41.024Z,3.20
2022-10-23T02:15:11.442Z,3.23
2022-10-23T02:17:45.372Z,3.30
2022-10-23T02:20:18.902Z,3.17
2022-10-23T02:22:52.532Z,3.10
2022-10-23T02:25:21.320Z,3.27
2022-10-23T02:27:50.226Z,3.60
2022-10-23T02:30:18.048Z,3.63
2022-10-23T02:32:47.340Z,3.50
2022-10-23T02:35:13.612Z,2.57
2022-10-23T02:37:40.136Z,3.03
2022-10-23T02:40:08.765Z,2.73
2022-10-23T02:42:39.105Z,3.17
2022-10-23T02:45:08.001Z,2.93
2022-10-23T02:47:46.299Z,2.80
2022-10-23T02:50:18.307Z,3.20
2022-10-23T02:52:50.580Z,3.10
2022-10-23T02:55:23.925Z,2.93
2022-10-23T02:57:53.606Z,2.97
2022-10-23T03:00:21.049Z,3.00
2022-10-23T03:02:53.573Z,2.67
2022-10-23T03:05:21.850Z,2.93
2022-10-23T03:07:48.457Z,2.80
2022-10-23T03:10:15.124Z,2.53
2022-10-23T03:12:41.594Z,3.13
2022-10-23T03:15:10.141Z,3.00
2022-10-23T03:17:36.284Z,3.10
2022-10-23T03:20:03.491Z,2.93
2022-10-23T03:22:29.621Z,3.10
2022-10-23T03:24:55.770Z,2.90
2022-10-23T03:27:22.152Z,2.80
2022-10-23T03:29:48.325Z,2.90
2022-10-23T03:32:14.457Z,3.00
2022-10-23T03:34:40.581Z,2.87
2022-10-23T03:37:07.350Z,3.00
2022-10-23T03:39:33.513Z,2.63
2022-10-23T03:41:59.708Z,3.20
2022-10-23T03:44:26.018Z,3.53
2022-10-23T03:46:52.132Z,2.47
2022-10-23T03:49:18.368Z,2.90
2022-10-23T03:51:51.126Z,2.70
2022-10-23T03:54:19.720Z,2.80
2022-10-23T03:56:45.803Z,2.87
2022-10-23T03:59:11.997Z,2.63
2022-10-23T04:01:38.209Z,3.07
2022-10-23T04:04:04.456Z,3.10
2022-10-23T04:06:30.774Z,2.70
2022-10-23T04:08:57.185Z,2.83
2022-10-23T04:11:23.945Z,3.13
2022-10-23T04:13:50.066Z,3.10
2022-10-23T04:16:16.382Z,2.70
2022-10-23T04:18:42.575Z,3.07
2022-10-23T04:21:09.277Z,2.80
2022-10-23T04:23:35.445Z,2.93
2022-10-23T04:26:01.620Z,3.07
2022-10-23T04:28:28.392Z,3.20
2022-10-23T04:30:54.701Z,3.57
2022-10-23T04:33:20.817Z,3.57
2022-10-23T04:35:46.978Z,3.80
2022-10-23T04:38:13.140Z,4.33
2022-10-23T04:40:39.295Z,3.47
2022-10-23T04:43:05.439Z,3.67
2022-10-23T04:45:32.199Z,3.27
2022-10-23T04:47:58.449Z,3.30
2022-10-23T04:50:24.857Z,3.20
2022-10-23T04:52:53.880Z,3.20
2022-10-23T04:55:20.392Z,3.27
2022-10-23T04:57:46.517Z,3.30
2022-10-23T05:00:14.859Z,2.70
2022-10-23T05:02:42.073Z,2.33
2022-10-23T05:05:08.793Z,2.67
2022-10-23T05:07:35.676Z,2.57
2022-10-23T05:10:02.769Z,2.50
2022-10-23T05:12:29.040Z,2.97
2022-10-23T05:14:55.213Z,2.63
2022-10-23T05:17:23.740Z,3.00
2022-10-23T05:19:53.359Z,3.37
2022-10-23T05:22:19.833Z,2.57
2022-10-23T05:24:49.667Z,2.37
2022-10-23T05:27:16.901Z,3.33
2022-10-23T05:29:43.034Z,2.40
2022-10-23T05:32:10.181Z,2.57
2022-10-23T05:34:37.460Z,2.57
2022-10-23T05:37:06.246Z,2.63
2022-10-23T05:39:32.666Z,2.33
2022-10-23T05:41:58.768Z,2.77
2022-10-23T05:44:24.941Z,2.90
2022-10-23T05:46:51.113Z,2.23
2022-10-23T05:49:17.325Z,3.43
2022-10-23T05:51:43.457Z,2.47
2022-10-23T05:54:10.316Z,2.63
2022-10-23T05:56:37.986Z,2.50
2022-10-23T05:59:04.213Z,2.60
2022-10-23T06:01:30.851Z,2.40
2022-10-23T06:03:58.593Z,2.30
2022-10-23T06:06:24.810Z,2.43
2022-10-23T06:08:50.992Z,2.60
2022-10-23T06:11:17.941Z,2.77
2022-10-23T06:13:44.735Z,2.20
2022-10-23T06:16:14.475Z,2.37
2022-10-23T06:18:40.636Z,2.33
2022-10-23T06:21:07.040Z,2.57
2022-10-23T06:23:33.596Z,2.53
2022-10-23T06:25:59.789Z,2.50
2022-10-23T06:28:27.167Z,2.40
2022-10-23T06:30:53.326Z,2.60
2022-10-23T06:33:19.721Z,2.37
2022-10-23T06:35:46.055Z,2.50
2022-10-23T06:38:13.077Z,2.07
2022-10-23T06:40:39.263Z,2.30
2022-10-23T06:43:05.736Z,1.90
2022-10-23T06:45:33.946Z,2.27
2022-10-23T06:48:00.581Z,2.40
2022-10-23T06:50:26.785Z,1.77
2022-10-23T06:52:53.166Z,2.20
2022-10-23T06:55:19.573Z,2.67
2022-10-23T06:57:46.336Z,2.20
2022-10-23T07:00:13.361Z,2.60
2022-10-23T07:02:40.259Z,2.20
2022-10-23T07:05:08.834Z,1.83
2022-10-23T07:07:38.737Z,2.13
2022-10-23T07:10:05.751Z,2.50
2022-10-23T07:12:31.924Z,2.30
2022-10-23T07:14:58.062Z,2.40
2022-10-23T07:17:24.233Z,2.40
2022-10-23T07:19:50.970Z,2.20
2022-10-23T07:22:17.110Z,2.30
2022-10-23T07:24:43.427Z,2.40
2022-10-23T07:27:09.583Z,2.43
2022-10-23T07:29:36.217Z,2.70
2022-10-23T07:32:03.736Z,2.57
2022-10-23T07:34:31.210Z,2.27
2022-10-23T07:36:57.964Z,2.50
2022-10-23T07:39:24.076Z,2.13
2022-10-23T07:41:50.228Z,2.13
2022-10-23T07:44:17.137Z,2.43
2022-10-23T07:46:43.246Z,2.30
2022-10-23T07:49:09.707Z,2.30
2022-10-23T07:51:35.933Z,2.00
2022-10-23T07:54:02.956Z,2.03
2022-10-23T07:56:29.226Z,2.00
2022-10-23T07:58:55.914Z,2.33
2022-10-23T08:01:27.704Z,2.30
2022-10-23T08:03:53.896Z,1.90
2022-10-23T08:06:20.097Z,1.90
2022-10-23T08:08:46.231Z,1.73
2022-10-23T08:11:14.831Z,2.00
2022-10-23T08:13:41.077Z,2.13
2022-10-23T08:16:07.716Z,1.77
2022-10-23T08:18:33.857Z,1.77
2022-10-23T08:21:01.522Z,2.00
2022-10-23T08:23:28.304Z,1.83
2022-10-23T08:25:57.629Z,1.60
2022-10-23T08:28:24.404Z,1.60
2022-10-23T08:30:50.533Z,1.50
2022-10-23T08:33:16.658Z,1.73
2022-10-23T08:35:42.771Z,1.53
2022-10-23T08:38:10.228Z,1.60
2022-10-23T08:40:36.500Z,1.50
2022-10-23T08:43:05.553Z,1.70
2022-10-23T08:45:36.005Z,1.90
2022-10-23T08:48:09.194Z,1.33
2022-10-23T08:50:40.309Z,1.63
2022-10-23T08:53:12.758Z,1.80
2022-10-23T08:55:42.046Z,1.80
2022-10-23T08:58:14.670Z,1.50
2022-10-23T09:00:42.067Z,1.60
2022-10-23T09:03:10.185Z,1.70
2022-10-23T09:05:51.233Z,1.67
2022-10-23T09:08:29.691Z,1.57
2022-10-23T09:11:04.084Z,2.20
2022-10-23T09:14:01.153Z,1.50
2022-10-23T09:16:40.217Z,1.60
2022-10-23T09:19:12.364Z,1.57
2022-10-23T09:21:38.498Z,1.60
2022-10-23T09:24:05.192Z,1.60
2022-10-23T09:26:31.306Z,1.73
2022-10-23T09:29:05.920Z,1.57
2022-10-23T09:31:32.725Z,2.07
2022-10-23T09:34:00.379Z,1.53
2022-10-23T09:36:28.644Z,1.23
2022-10-23T09:38:56.050Z,1.77
2022-10-23T09:41:24.238Z,1.50
2022-10-23T09:44:00.485Z,1.50
2022-10-23T09:46:37.830Z,1.10
2022-10-23T09:49:05.793Z,1.63
2022-10-23T09:51:32.068Z,2.07
2022-10-23T09:53:59.378Z,2.50
2022-10-23T09:56:27.319Z,1.93
2022-10-23T09:58:55.851Z,1.90
2022-10-23T10:01:23.754Z,1.43
2022-10-23T10:03:51.326Z,1.50
2022-10-23T10:06:22.770Z,1.30
2022-10-23T10:08:51.309Z,1.60
2022-10-23T10:11:21.393Z,1.87
2022-10-23T10:13:58.857Z,1.70
2022-10-23T10:16:33.327Z,1.63
2022-10-23T10:19:04.806Z,1.60
2022-10-23T10:21:36.026Z,1.77
2022-10-23T10:24:05.761Z,1.33
2022-10-23T10:26:39.836Z,1.80
2022-10-23T10:29:13.887Z,1.53
2022-10-23T10:31:50.729Z,1.57
2022-10-23T10:34:25.156Z,1.50
2022-10-23T10:36:53.094Z,1.53
2022-10-23T10:39:27.705Z,1.63
2022-10-23T10:42:03.430Z,1.80
2022-10-23T10:44:42.770Z,1.77
2022-10-23T10:47:16.001Z,1.63
2022-10-23T10:49:51.275Z,1.70
2022-10-23T10:52:22.624Z,1.73
2022-10-23T10:54:55.940Z,1.50
2022-10-23T10:57:29.459Z,1.80
2022-10-23T10:59:57.214Z,1.67
2022-10-23T11:02:27.096Z,1.30
2022-10-23T11:04:59.517Z,1.23
2022-10-23T11:07:29.222Z,1.57
2022-10-23T11:09:56.649Z,1.67
2022-10-23T11:12:24.810Z,1.40
2022-10-23T11:14:51.055Z,1.70
2022-10-23T11:17:19.770Z,1.50
2022-10-23T11:19:48.662Z,1.60
2022-10-23T11:22:21.460Z,1.50
2022-10-23T11:25:12.461Z,1.50
2022-10-23T11:27:51.911Z,1.30
2022-10-23T11:30:22.155Z,1.60
2022-10-23T11:33:22.258Z,1.40
2022-10-23T11:35:54.211Z,1.70
2022-10-23T11:38:25.621Z,1.80
2022-10-23T11:40:53.600Z,1.97
2022-10-23T11:43:26.777Z,1.73
2022-10-23T11:45:52.970Z,1.30
2022-10-23T11:48:21.874Z,1.70
2022-10-23T11:50:54.103Z,1.80
2022-10-23T11:53:27.065Z,1.50
2022-10-23T11:55:58.650Z,1.30
2022-10-23T11:58:30.744Z,1.40
2022-10-23T12:01:03.773Z,1.37
2022-10-23T12:03:39.678Z,1.37
2022-10-23T12:06:06.264Z,1.67
2022-10-23T12:08:35.668Z,1.53
2022-10-23T12:11:01.908Z,1.67
2022-10-23T12:13:45.143Z,1.70
2022-10-23T12:16:11.801Z,1.60
2022-10-23T12:18:46.128Z,1.40
2022-10-23T12:21:16.348Z,1.30
2022-10-23T12:23:54.922Z,1.50
2022-10-23T12:26:34.026Z,1.63
2022-10-23T12:29:06.598Z,1.73
2022-10-23T12:31:43.080Z,1.63
2022-10-23T12:34:22.774Z,1.80
2022-10-23T12:36:58.700Z,1.70
2022-10-23T12:39:29.183Z,1.47
2022-10-23T12:41:55.893Z,1.67
2022-10-23T12:44:23.562Z,1.33
2022-10-23T12:46:51.374Z,1.50
2022-10-23T12:49:20.395Z,1.93
2022-10-23T12:51:55.021Z,1.37
2022-10-23T12:54:21.767Z,1.80
2022-10-23T12:56:49.022Z,1.70
2022-10-23T12:59:17.180Z,1.60
2022-10-23T13:01:43.697Z,1.40
2022-10-23T13:06:49.828Z,1.70
2022-10-23T13:09:21.993Z,1.60
2022-10-23T13:11:49.344Z,1.77
2022-10-23T13:14:32.874Z,1.90
2022-10-23T13:17:00.721Z,1.70
2022-10-23T13:19:27.037Z,1.80
2022-10-23T13:21:53.295Z,1.90
2022-10-23T13:24:20.445Z,1.90
2022-10-23T13:26:46.655Z,2.10
2022-10-23T13:29:19.440Z,1.80
2022-10-23T13:31:45.665Z,2.00
2022-10-23T13:34:22.851Z,1.70
2022-10-23T13:36:53.601Z,1.90
2022-10-23T13:39:23.199Z,1.90
2022-10-23T13:41:49.434Z,1.70
2022-10-23T13:44:18.159Z,2.00
2022-10-23T13:46:44.507Z,1.70
2022-10-23T13:49:10.793Z,1.80
2022-10-23T13:51:42.598Z,1.83
2022-10-23T13:54:14.050Z,2.30
2022-10-23T13:56:40.239Z,2.10
2022-10-23T13:59:07.140Z,2.00
2022-10-23T14:01:35.177Z,2.00
2022-10-23T14:04:03.611Z,2.00
2022-10-23T14:06:30.076Z,2.20
2022-10-23T14:08:56.464Z,2.03
2022-10-23T14:11:23.036Z,1.70
2022-10-23T14:13:49.960Z,2.43
2022-10-23T14:16:18.060Z,1.53
2022-10-23T14:18:44.954Z,2.30
2022-10-23T14:21:13.168Z,2.17
2022-10-23T14:23:39.506Z,1.70
2022-10-23T14:26:07.083Z,2.00
2022-10-23T14:28:33.543Z,2.20
2022-10-23T14:31:03.644Z,2.07
2022-10-23T14:33:29.878Z,2.23
2022-10-23T14:35:56.700Z,2.80
2022-10-23T14:38:22.836Z,2.20
2022-10-23T14:40:49.146Z,2.07
2022-10-23T14:43:15.308Z,2.87
2022-10-23T14:45:41.544Z,2.37
2022-10-23T14:48:07.841Z,2.17
2022-10-23T14:50:35.299Z,2.17
2022-10-23T14:53:02.265Z,2.37
2022-10-23T14:55:28.494Z,2.73
2022-10-23T14:57:54.828Z,2.50
2022-10-23T15:00:21.920Z,2.10
2022-10-23T15:02:48.202Z,1.90
2022-10-23T15:05:14.474Z,3.17
2022-10-23T15:07:40.673Z,2.50
2022-10-23T15:10:08.851Z,2.30
2022-10-23T15:12:35.105Z,2.43
2022-10-23T15:15:01.629Z,2.10
2022-10-23T15:17:27.937Z,2.10
2022-10-23T15:19:54.281Z,2.40
2022-10-23T15:22:21.767Z,2.83
2022-10-23T15:24:47.998Z,2.93
2022-10-23T15:27:15.075Z,3.00
2022-10-23T15:29:41.488Z,2.80
2022-10-23T15:32:09.218Z,2.90
2022-10-23T15:34:36.806Z,2.60
2022-10-23T15:37:03.605Z,2.30
2022-10-23T15:39:34.465Z,2.83
2022-10-23T15:42:02.146Z,2.53
2022-10-23T15:44:30.488Z,2.80
2022-10-23T15:46:57.144Z,2.80
2022-10-23T15:49:23.993Z,3.30
2022-10-23T15:51:50.408Z,2.87
2022-10-23T15:54:18.389Z,2.60
2022-10-23T15:56:44.744Z,2.90
2022-10-23T15:59:10.926Z,2.63
2022-10-23T16:01:38.109Z,3.20
2022-10-23T16:04:04.588Z,3.40
2022-10-23T16:06:30.860Z,3.60
2022-10-23T16:08:56.997Z,2.97
2022-10-23T16:11:25.315Z,3.73
2022-10-23T16:13:51.550Z,4.27
2022-10-23T16:16:18.146Z,3.50
2022-10-23T16:18:45.679Z,3.90
2022-10-23T16:21:18.210Z,3.50
2022-10-23T16:23:44.833Z,3.90
2022-10-23T16:26:11.767Z,4.17
2022-10-23T16:28:38.118Z,4.00
2022-10-23T16:31:08.607Z,3.07
2022-10-23T16:33:34.776Z,4.33
2022-10-23T16:36:03.356Z,3.57
2022-10-23T16:38:29.949Z,3.20
2022-10-23T16:40:57.081Z,3.60
2022-10-23T16:43:23.984Z,4.00
2022-10-23T16:46:00.552Z,18.67
2022-10-23T16:48:26.913Z,7.40
2022-10-23T16:50:53.485Z,4.20
2022-10-23T16:53:20.476Z,4.40
2022-10-23T16:55:46.798Z,3.53
2022-10-23T16:58:13.144Z,3.70
2022-10-23T17:00:39.353Z,3.60
2022-10-23T17:03:05.483Z,3.57
2022-10-23T17:05:33.035Z,3.77
2022-10-23T17:07:59.218Z,3.60
2022-10-23T17:10:26.051Z,3.50
2022-10-23T17:12:52.318Z,3.53
2022-10-23T17:15:19.048Z,3.53
2022-10-23T17:17:45.556Z,3.70
2022-10-23T17:20:12.516Z,3.77
2022-10-23T17:22:38.740Z,3.90
2022-10-23T17:25:06.261Z,3.63
2022-10-23T17:27:33.108Z,4.40
2022-10-23T17:29:59.268Z,3.37
2022-10-23T17:32:25.509Z,3.63
2022-10-23T17:34:51.783Z,3.37
2022-10-23T17:37:18.214Z,3.30
2022-10-23T17:39:44.551Z,3.60
2022-10-23T17:42:10.701Z,3.80
2022-10-23T17:44:37.628Z,3.80
2022-10-23T17:47:03.841Z,3.73
2022-10-23T17:49:30.271Z,3.63
2022-10-23T17:51:57.102Z,3.70
2022-10-23T17:54:24.290Z,3.60
2022-10-23T17:56:50.521Z,3.80
2022-10-23T17:59:18.045Z,3.20
2022-10-23T18:01:46.077Z,3.63
2022-10-23T18:04:12.292Z,3.53
2022-10-23T18:06:42.321Z,4.87
2022-10-23T18:09:08.786Z,3.43
2022-10-23T18:11:36.368Z,3.70
2022-10-23T18:14:03.903Z,3.10
2022-10-23T18:16:30.057Z,3.50
2022-10-23T18:18:58.704Z,3.33
2022-10-23T18:21:25.065Z,3.73
2022-10-23T18:23:51.711Z,3.10
2022-10-23T18:26:19.710Z,3.10
2022-10-23T18:28:47.653Z,2.80
2022-10-23T18:31:14.829Z,2.80
2022-10-23T18:33:41.178Z,3.37
2022-10-23T18:36:13.930Z,2.87
2022-10-23T18:38:40.281Z,3.50
2022-10-23T18:41:06.646Z,2.80
2022-10-23T18:43:43.149Z,3.03
2022-10-23T18:46:10.342Z,3.23
2022-10-23T18:48:36.562Z,3.40
2022-10-23T18:51:02.906Z,2.50
2022-10-23T18:53:29.856Z,3.00
2022-10-23T18:55:56.065Z,3.00
2022-10-23T18:58:22.237Z,3.17
2022-10-23T19:00:48.457Z,2.73
2022-10-23T19:03:15.057Z,2.93
2022-10-23T19:05:41.680Z,2.93
2022-10-23T19:08:08.039Z,2.90
2022-10-23T19:10:35.982Z,2.93
2022-10-23T19:13:02.353Z,3.17
2022-10-23T19:15:28.789Z,2.83
2022-10-23T19:17:55.052Z,3.27
2022-10-23T19:20:22.200Z,3.30
2022-10-23T19:22:49.982Z,2.60
2022-10-23T19:25:18.445Z,2.63
2022-10-23T19:27:46.298Z,3.10
2022-10-23T19:30:16.237Z,2.60
2022-10-23T19:32:46.039Z,2.67
2022-10-23T19:35:14.275Z,3.10
2022-10-23T19:37:40.671Z,2.50
2022-10-23T19:40:08.775Z,2.63
2022-10-23T19:42:36.519Z,2.53
2022-10-23T19:45:04.627Z,2.90
2022-10-23T19:47:31.041Z,2.80
2022-10-23T19:49:57.340Z,2.50
2022-10-23T19:52:23.810Z,2.40
2022-10-23T19:54:50.264Z,2.77
2022-10-23T19:57:19.207Z,2.73
2022-10-23T19:59:48.801Z,2.30
2022-10-23T20:02:15.945Z,2.43
2022-10-23T20:04:42.238Z,2.77
2022-10-23T20:07:08.484Z,2.27
2022-10-23T20:09:34.785Z,2.53
2022-10-23T20:12:01.269Z,2.20
2022-10-23T20:14:27.785Z,2.37
2022-10-23T20:16:56.025Z,2.77
2022-10-23T20:19:23.410Z,2.60
2022-10-23T20:21:49.773Z,2.20
2022-10-23T20:24:17.750Z,2.50
2022-10-23T20:26:46.349Z,2.50
2022-10-23T20:29:12.702Z,2.83
2022-10-23T20:31:39.002Z,2.70
2022-10-23T20:34:05.475Z,2.87
2022-10-23T20:36:33.940Z,2.90
2022-10-23T20:39:02.109Z,2.60
2022-10-23T20:41:28.512Z,2.80
2022-10-23T20:43:55.230Z,2.70
2022-10-23T20:46:22.309Z,2.90
2022-10-23T20:48:48.462Z,3.03
2022-10-23T20:51:16.978Z,2.53
2022-10-23T20:53:44.697Z,3.03
2022-10-23T20:56:13.485Z,2.77
2022-10-23T20:58:40.130Z,3.20
2022-10-23T21:01:09.831Z,2.90
2022-10-23T21:03:36.361Z,2.77
2022-10-23T21:06:03.686Z,2.50
2022-10-23T21:08:29.890Z,3.07
2022-10-23T21:10:56.698Z,2.87
2022-10-23T21:13:22.954Z,2.80
2022-10-23T21:15:49.117Z,3.10
2022-10-23T21:18:27.167Z,2.33
2022-10-23T21:21:03.213Z,2.50
2022-10-23T21:23:29.412Z,2.80
2022-10-23T21:25:56.224Z,2.80
2022-10-23T21:28:22.370Z,2.40
2022-10-23T21:30:48.546Z,3.03
2022-10-23T21:33:14.704Z,2.97
2022-10-23T21:35:47.516Z,3.07
2022-10-23T21:38:24.454Z,3.13
2022-10-23T21:40:50.793Z,2.90
2022-10-23T21:43:17.786Z,3.17
2022-10-23T21:45:44.168Z,2.87
2022-10-23T21:48:10.353Z,2.83
2022-10-23T21:50:36.637Z,3.30
2022-10-23T21:53:02.997Z,3.30
2022-10-23T21:55:29.873Z,3.80
2022-10-23T21:57:56.086Z,2.90
2022-10-23T22:00:23.602Z,3.17
2022-10-23T22:02:49.800Z,2.90
2022-10-23T22:05:16.712Z,3.23
2022-10-23T22:07:46.499Z,3.53
2022-10-23T22:10:13.007Z,3.30
2022-10-23T22:12:39.216Z,3.13
2022-10-23T22:15:06.709Z,3.50
2022-10-23T22:17:33.603Z,3.23
2022-10-23T22:19:59.821Z,2.90
2022-10-23T22:22:25.952Z,2.70
2022-10-23T22:24:52.149Z,3.23
2022-10-23T22:27:18.738Z,4.17
2022-10-23T22:29:44.848Z,3.13
2022-10-23T22:32:11.005Z,2.97
2022-10-23T22:34:53.724Z,3.37
2022-10-23T22:37:20.176Z,3.50
2022-10-23T22:39:49.962Z,3.00
2022-10-23T22:42:16.105Z,3.53
2022-10-23T22:44:42.248Z,3.27
2022-10-23T22:47:08.398Z,3.03
2022-10-23T22:49:34.577Z,3.27
2022-10-23T22:52:01.352Z,3.40
2022-10-23T22:54:29.659Z,3.27
2022-10-23T22:56:55.805Z,2.80
2022-10-23T22:59:21.906Z,3.40
2022-10-23T23:01:49.112Z,2.80
2022-10-23T23:04:36.568Z,3.17
2022-10-23T23:07:04.317Z,3.00
2022-10-23T23:09:30.583Z,3.70
2022-10-23T23:11:56.735Z,2.90
2022-10-23T23:14:24.348Z,3.00
2022-10-23T23:16:51.262Z,3.30
2022-10-23T23:19:17.512Z,3.10
2022-10-23T23:21:43.707Z,2.97
2022-10-23T23:24:10.787Z,3.47
2022-10-23T23:26:36.976Z,2.90
2022-10-23T23:29:03.371Z,3.30
2022-10-23T23:31:29.640Z,3.10
2022-10-23T23:33:55.818Z,2.83
2022-10-23T23:36:23.603Z,4.17
2022-10-23T23:38:50.283Z,3.23
2022-10-23T23:41:18.720Z,3.10
2022-10-23T23:43:44.940Z,3.07
2022-10-23T23:46:11.621Z,3.00
2022-10-23T23:48:38.288Z,3.27
2022-10-23T23:51:04.889Z,3.20
2022-10-23T23:53:31.170Z,3.80
2022-10-23T23:55:57.645Z,3.00
2022-10-23T23:58:24.654Z,3.13
